Time;durP1;ratioP1;P1;durP2;ratioP2;P2;SDS_P1;SDS_P2;PMS_P1;PMS_P2;Temp;Humidity;BMP_temperature;BMP_pressure;BME280_temperature;BME280_humidity;BME280_pressure;Samples;Min_cycle;Max_cycle;Signal;HPM_P1;HPM_P2
2022/04/26 03:37:39;;;;;;;10.07;5.37;;;4.50;99.90;;;;;;5094350;28;20209;-40
2022/04/26 03:40:07;;;;;;;10.47;5.90;;;4.50;99.90;;;;;;5087458;27;20198;-40
2022/04/26 03:42:34;;;;;;;7.13;5.47;;;4.50;99.90;;;;;;5083487;27;20694;-41
2022/04/26 03:45:01;;;;;;;6.77;5.67;;;4.50;99.90;;;;;;5097035;27;20208;-39
2022/04/26 03:47:28;;;;;;;8.40;5.83;;;4.50;99.90;;;;;;5099471;27;20246;-40
2022/04/26 03:49:56;;;;;;;8.87;6.00;;;4.50;99.90;;;;;;5091485;28;20219;-43
2022/04/26 03:52:23;;;;;;;9.33;6.30;;;4.50;99.90;;;;;;5096602;28;20231;-39
2022/04/26 03:54:49;;;;;;;6.60;5.23;;;4.50;99.90;;;;;;5096449;28;20197;-38
2022/04/26 03:57:16;;;;;;;11.63;6.73;;;4.50;99.90;;;;;;5091229;27;20209;-42
2022/04/26 03:59:43;;;;;;;9.70;6.20;;;4.50;99.90;;;;;;5104764;27;20205;-39
2022/04/26 04:02:10;;;;;;;9.83;5.57;;;4.50;99.90;;;;;;5102304;27;20304;-41
2022/04/26 04:04:37;;;;;;;9.37;6.30;;;4.50;99.90;;;;;;5095094;27;20201;-40
2022/04/26 04:07:05;;;;;;;8.07;6.07;;;4.50;99.90;;;;;;5092581;27;20276;-40
2022/04/26 04:09:32;;;;;;;9.13;5.70;;;4.50;99.90;;;;;;5091210;28;20190;-41
2022/04/26 04:11:59;;;;;;;6.40;5.40;;;4.50;99.90;;;;;;5092784;28;20241;-40
2022/04/26 04:14:26;;;;;;;6.93;5.60;;;4.50;99.90;;;;;;5099628;27;20209;-39
2022/04/26 04:16:55;;;;;;;7.23;5.50;;;4.50;99.90;;;;;;5106103;27;20201;-41
2022/04/26 04:19:21;;;;;;;7.77;5.57;;;4.50;99.90;;;;;;5097012;27;20197;-39
2022/04/26 04:21:50;;;;;;;7.20;5.93;;;4.60;99.90;;;;;;5087564;28;20425;-39
2022/04/26 04:24:19;;;;;;;7.07;5.63;;;4.50;99.90;;;;;;5099205;28;20646;-39
2022/04/26 04:26:47;;;;;;;11.63;6.17;;;4.50;99.90;;;;;;5089528;28;20216;-40
2022/04/26 04:29:14;;;;;;;7.57;5.57;;;4.60;99.90;;;;;;5082736;27;20301;-39
2022/04/26 04:31:41;;;;;;;7.17;5.47;;;4.60;99.90;;;;;;5102784;27;20258;-40
2022/04/26 04:34:08;;;;;;;10.87;6.17;;;4.60;99.90;;;;;;5105357;27;20209;-41
2022/04/26 04:36:35;;;;;;;9.80;6.13;;;4.60;99.90;;;;;;5085995;27;20209;-43
2022/04/26 04:39:02;;;;;;;9.33;5.93;;;4.70;99.90;;;;;;5103865;28;20243;-42
2022/04/26 04:41:35;;;;;;;10.40;6.13;;;4.70;99.90;;;;;;5081547;28;20198;-39
2022/04/26 04:44:04;;;;;;;7.90;6.23;;;4.70;99.90;;;;;;5087692;27;20763;-40
2022/04/26 04:46:31;;;;;;;8.37;6.53;;;4.70;99.90;;;;;;5087909;27;20201;-40
2022/04/26 04:48:57;;;;;;;9.00;6.07;;;4.70;99.90;;;;;;5096906;28;20275;-40
2022/04/26 04:51:24;;;;;;;7.13;5.43;;;4.80;99.90;;;;;;5097832;28;21000;-40
2022/04/26 04:53:51;;;;;;;8.83;6.00;;;4.90;99.90;;;;;;5092493;27;20250;-40
2022/04/26 04:56:18;;;;;;;8.00;5.63;;;4.80;99.90;;;;;;5099628;27;20205;-39
2022/04/26 04:58:46;;;;;;;6.53;5.50;;;4.90;99.90;;;;;;5102164;27;20924;-40
2022/04/26 05:01:13;;;;;;;12.60;6.17;;;4.90;99.90;;;;;;5096418;27;20212;-41
2022/04/26 05:03:40;;;;;;;8.60;6.70;;;5.00;99.90;;;;;;5104893;27;20220;-43
2022/04/26 05:06:07;;;;;;;9.27;6.30;;;5.00;99.90;;;;;;5094436;27;20259;-41
2022/04/26 05:08:33;;;;;;;8.63;5.97;;;5.10;99.90;;;;;;5085903;28;20190;-43
2022/04/26 05:11:01;;;;;;;7.37;6.20;;;5.10;99.90;;;;;;5087924;28;20251;-41
2022/04/26 05:13:27;;;;;;;13.63;8.47;;;5.20;99.90;;;;;;5092929;28;20681;-41
2022/04/26 05:15:56;;;;;;;16.93;8.20;;;5.20;99.90;;;;;;5093766;27;20207;-41
2022/04/26 05:18:22;;;;;;;9.17;6.80;;;5.30;99.90;;;;;;5089104;27;20197;-40
2022/04/26 05:20:49;;;;;;;14.30;7.70;;;5.40;99.90;;;;;;5096370;27;20192;-41
2022/04/26 05:26:00;;;;;;;12.63;7.10;;;5.50;99.90;;;;;;5094489;27;20325;-42
2022/04/26 05:28:27;;;;;;;9.93;7.07;;;5.60;99.90;;;;;;5091941;27;20248;-41
2022/04/26 05:30:56;;;;;;;9.17;6.53;;;5.70;99.90;;;;;;5099579;27;20210;-43
2022/04/26 05:33:23;;;;;;;9.67;6.53;;;5.70;99.90;;;;;;5090358;27;20619;-39
2022/04/26 05:35:50;;;;;;;10.07;6.90;;;5.90;99.90;;;;;;5096425;28;20190;-40
2022/04/26 05:38:17;;;;;;;11.23;6.67;;;6.00;99.90;;;;;;5093603;27;20206;-41
2022/04/26 05:40:45;;;;;;;38.37;10.10;;;6.00;99.90;;;;;;5089596;27;20201;-42
2022/04/26 05:43:12;;;;;;;17.83;7.47;;;6.10;99.90;;;;;;5087222;28;20452;-39
2022/04/26 05:45:39;;;;;;;14.70;7.10;;;6.30;99.90;;;;;;5080840;27;20220;-39
2022/04/26 05:48:07;;;;;;;9.20;6.63;;;6.40;99.90;;;;;;5089271;27;20201;-40
2022/04/26 05:50:34;;;;;;;12.37;6.57;;;6.50;99.90;;;;;;5117244;27;20202;-39
2022/04/26 05:53:01;;;;;;;8.20;6.03;;;6.60;99.90;;;;;;5086483;27;20217;-41
2022/04/26 05:55:28;;;;;;;11.90;7.17;;;6.70;99.90;;;;;;5091696;27;20198;-40
2022/04/26 05:57:55;;;;;;;7.87;6.60;;;6.80;99.90;;;;;;5092873;28;20240;-40
2022/04/26 06:00:22;;;;;;;8.73;6.50;;;6.90;99.90;;;;;;5092417;27;20755;-39
2022/04/26 06:02:49;;;;;;;8.60;6.10;;;7.00;99.90;;;;;;5109804;27;20218;-39
2022/04/26 06:05:17;;;;;;;9.33;6.40;;;7.20;99.90;;;;;;5088857;28;21073;-44
2022/04/26 06:07:44;;;;;;;7.40;6.40;;;7.20;99.90;;;;;;5102910;27;20209;-43
2022/04/26 06:10:11;;;;;;;8.93;5.93;;;7.30;99.90;;;;;;5080571;28;20281;-43
2022/04/26 06:12:39;;;;;;;6.57;5.93;;;7.40;99.90;;;;;;5090788;28;20226;-40
2022/04/26 06:15:08;;;;;;;8.50;5.90;;;7.60;99.90;;;;;;5087713;28;20472;-40
2022/04/26 06:17:34;;;;;;;12.43;6.30;;;7.70;99.90;;;;;;5096228;27;20239;-40
2022/04/26 06:20:01;;;;;;;8.63;6.80;;;7.80;99.90;;;;;;5094690;27;20217;-39
2022/04/26 06:22:29;;;;;;;7.60;6.43;;;7.90;99.90;;;;;;5087582;28;20214;-39
2022/04/26 06:24:56;;;;;;;7.90;6.67;;;8.00;99.90;;;;;;5084529;28;20197;-39
2022/04/26 06:27:23;;;;;;;11.80;6.07;;;8.20;99.90;;;;;;5085977;27;22558;-41
2022/04/26 06:29:50;;;;;;;9.33;6.97;;;8.40;99.90;;;;;;5098829;28;20260;-40
2022/04/26 06:32:17;;;;;;;8.17;6.63;;;8.60;99.90;;;;;;5074879;28;20221;-43
2022/04/26 06:34:44;;;;;;;7.00;5.67;;;8.80;99.90;;;;;;5105376;27;20605;-39
2022/04/26 06:37:12;;;;;;;8.80;6.40;;;8.80;99.90;;;;;;5095135;28;20221;-40
2022/04/26 06:39:42;;;;;;;7.83;5.97;;;8.90;99.90;;;;;;5075717;28;21081;-41
2022/04/26 06:42:08;;;;;;;6.80;5.60;;;8.90;99.90;;;;;;5087046;28;20751;-40
2022/04/26 06:44:37;;;;;;;6.33;5.60;;;;;;;;;;5086336;28;20309;-39
2022/04/26 06:47:04;;;;;;;7.70;6.13;;;9.00;99.90;;;;;;5093218;28;20209;-39
2022/04/26 06:49:31;;;;;;;7.30;5.77;;;9.10;99.90;;;;;;5094970;28;20265;-42
2022/04/26 06:51:57;;;;;;;8.30;5.60;;;9.10;99.90;;;;;;5095902;28;20583;-42
2022/04/26 06:54:24;;;;;;;6.43;5.20;;;9.20;99.90;;;;;;5087845;28;20217;-40
2022/04/26 06:56:52;;;;;;;6.03;5.30;;;9.20;99.90;;;;;;5088147;28;20425;-41
2022/04/26 06:59:19;;;;;;;5.57;4.97;;;9.30;99.90;;;;;;5085774;28;20200;-41
2022/04/26 07:01:52;;;;;;;6.77;5.00;;;9.60;99.90;;;;;;5089730;28;20381;-41
2022/04/26 07:04:19;;;;;;;8.40;5.30;;;9.60;99.90;;;;;;5090286;27;20271;-40
2022/04/26 07:06:45;;;;;;;9.17;4.70;;;9.70;99.90;;;;;;5090861;27;20196;-43
2022/04/26 07:09:12;;;;;;;6.10;4.97;;;9.80;99.90;;;;;;5092125;28;20194;-40
2022/04/26 07:11:41;;;;;;;6.33;4.37;;;9.90;99.90;;;;;;5083800;28;20194;-43
2022/04/26 07:14:09;;;;;;;5.10;4.60;;;10.00;99.90;;;;;;5097865;28;20633;-40
2022/04/26 07:16:36;;;;;;;4.07;3.77;;;10.10;99.90;;;;;;5093086;27;20202;-42
2022/04/26 07:19:05;;;;;;;10.17;5.47;;;10.20;99.90;;;;;;5086696;27;20621;-41
2022/04/26 07:21:32;;;;;;;7.90;4.47;;;10.30;99.90;;;;;;5084499;27;20770;-45
2022/04/26 07:23:59;;;;;;;6.23;5.20;;;10.40;99.90;;;;;;5091619;27;20221;-43
2022/04/26 07:26:26;;;;;;;7.53;4.53;;;10.50;99.90;;;;;;5091942;28;20599;-43
2022/04/26 07:28:52;;;;;;;6.43;4.70;;;10.60;99.90;;;;;;5090633;27;20659;-41
2022/04/26 07:31:20;;;;;;;8.27;5.13;;;10.70;99.90;;;;;;5101731;27;20681;-41
2022/04/26 07:36:40;;;;;;;5.53;4.37;;;10.90;99.90;;;;;;5066019;27;20213;-42
2022/04/26 07:39:07;;;;;;;5.23;4.10;;;11.00;99.90;;;;;;5097991;27;20206;-40
2022/04/26 07:41:33;;;;;;;4.43;4.03;;;11.10;99.90;;;;;;5101886;28;20761;-41
2022/04/26 07:44:00;;;;;;;5.57;4.17;;;11.10;99.90;;;;;;5104924;28;20217;-41
2022/04/26 07:46:28;;;;;;;5.93;4.63;;;11.20;99.90;;;;;;5096730;27;20763;-41
2022/04/26 07:48:55;;;;;;;5.03;4.53;;;11.20;99.90;;;;;;5093745;27;20209;-42
2022/04/26 07:51:22;;;;;;;5.57;4.80;;;11.20;99.90;;;;;;5081682;27;20205;-42
2022/04/26 07:53:49;;;;;;;5.40;4.47;;;11.30;99.90;;;;;;5101188;27;20221;-41
2022/04/26 07:56:15;;;;;;;4.97;4.57;;;11.30;99.90;;;;;;5092736;27;20247;-40
2022/04/26 07:58:42;;;;;;;3.90;3.57;;;11.40;99.90;;;;;;5100232;27;20287;-39
2022/04/26 08:01:09;;;;;;;4.23;3.87;;;11.60;99.90;;;;;;5096750;27;20208;-41
2022/04/26 08:03:37;;;;;;;5.67;4.30;;;11.90;99.90;;;;;;5099408;27;20916;-44
2022/04/26 08:06:03;;;;;;;5.80;4.27;;;12.00;99.90;;;;;;5102303;27;20661;-42
2022/04/26 08:08:30;;;;;;;5.13;4.40;;;12.00;99.90;;;;;;5098832;27;20282;-39
2022/04/26 08:10:57;;;;;;;4.83;4.33;;;12.00;99.90;;;;;;5102743;27;20542;-41
2022/04/26 08:13:24;;;;;;;5.10;4.20;;;12.00;99.90;;;;;;5098809;28;20228;-39
2022/04/26 08:15:50;;;;;;;5.87;3.70;;;12.20;99.90;;;;;;5091369;28;20220;-40
2022/04/26 08:18:18;;;;;;;6.07;3.57;;;12.30;99.90;;;;;;5098024;28;20201;-40
2022/04/26 08:20:46;;;;;;;5.07;4.00;;;12.30;99.90;;;;;;5080907;27;20205;-43
2022/04/26 08:23:13;;;;;;;4.77;4.17;;;12.30;99.90;;;;;;5098472;27;20209;-42
2022/04/26 08:28:24;;;;;;;4.17;3.60;;;12.30;98.80;;;;;;5085680;27;20268;-43
2022/04/26 08:30:51;;;;;;;5.77;4.27;;;12.40;99.20;;;;;;5107730;27;20192;-40
2022/04/26 08:33:18;;;;;;;6.10;4.13;;;12.70;97.90;;;;;;5097288;27;20224;-41
2022/04/26 08:35:47;;;;;;;6.80;4.93;;;12.70;98.40;;;;;;5100518;27;20200;-42
2022/04/26 08:38:13;;;;;;;4.70;4.30;;;12.70;96.60;;;;;;5091477;27;21852;-41
2022/04/26 08:40:42;;;;;;;4.40;4.00;;;12.70;96.50;;;;;;5096344;27;20197;-40
2022/04/26 08:43:08;;;;;;;5.37;4.87;;;12.60;96.70;;;;;;5084624;28;20241;-43
2022/04/26 08:45:38;;;;;;;5.40;4.70;;;12.60;96.40;;;;;;5088636;28;20310;-45
2022/04/26 08:51:00;;;;;;;5.00;4.10;;;12.80;96.30;;;;;;5096580;27;20260;-42
2022/04/26 08:53:29;;;;;;;5.83;3.40;;;13.00;95.90;;;;;;5081265;27;20214;-38
2022/04/26 08:55:57;;;;;;;5.50;3.87;;;13.10;95.20;;;;;;5086590;27;20209;-42
2022/04/26 08:58:27;;;;;;;6.53;4.50;;;13.10;94.80;;;;;;5099571;27;20204;-40
2022/04/26 09:01:12;;;;;;;4.10;3.70;;;13.00;94.60;;;;;;5102608;27;20277;-40
2022/04/26 09:03:40;;;;;;;4.20;3.80;;;13.00;93.90;;;;;;5093191;27;20244;-41
2022/04/26 09:06:11;;;;;;;4.77;3.87;;;12.90;93.70;;;;;;5089200;27;20206;-40
2022/04/26 09:08:38;;;;;;;4.40;4.00;;;13.00;93.80;;;;;;5093809;27;20197;-42
2022/04/26 09:11:20;;;;;;;4.20;3.90;;;13.10;93.60;;;;;;5102207;27;20812;-41
2022/04/26 09:13:47;;;;;;;5.53;4.00;;;13.20;93.40;;;;;;5100989;28;20677;-44
2022/04/26 09:16:17;;;;;;;3.43;3.13;;;13.40;93.40;;;;;;5086659;28;20474;-40
2022/04/26 09:18:56;;;;;;;4.90;3.73;;;13.40;92.40;;;;;;5091527;28;20205;-40
2022/04/26 09:21:27;;;;;;;3.50;3.20;;;13.50;92.40;;;;;;5083302;28;20197;-40
2022/04/26 09:23:57;;;;;;;4.77;3.77;;;13.50;92.20;;;;;;5082178;27;20213;-41
2022/04/26 09:26:25;;;;;;;5.13;3.80;;;13.70;91.70;;;;;;5090504;27;20608;-40
2022/04/26 09:28:53;;;;;;;4.37;3.30;;;13.60;91.20;;;;;;5098433;27;20209;-39
2022/04/26 09:31:22;;;;;;;4.03;3.47;;;13.60;90.80;;;;;;5095268;28;20201;-41
2022/04/26 09:33:52;;;;;;;3.20;2.90;;;13.60;89.80;;;;;;5103624;27;20205;-43
2022/04/26 09:36:20;;;;;;;3.70;3.40;;;13.60;88.90;;;;;;5087395;28;20821;-39
2022/04/26 09:38:53;;;;;;;4.67;3.50;;;13.60;89.00;;;;;;5099989;28;20569;-41
2022/04/26 09:41:21;;;;;;;3.70;3.33;;;13.60;86.90;;;;;;5089083;27;20274;-40
2022/04/26 09:44:01;;;;;;;3.50;3.20;;;13.70;87.40;;;;;;5096380;27;20225;-43
2022/04/26 09:46:49;;;;;;;3.40;3.10;;;13.70;86.60;;;;;;5093844;28;20795;-40
2022/04/26 09:49:17;;;;;;;4.27;3.23;;;13.90;88.00;;;;;;5087538;28;20227;-39
2022/04/26 09:51:46;;;;;;;4.00;3.20;;;14.00;86.60;;;;;;5083133;28;20292;-41
2022/04/26 09:54:13;;;;;;;6.57;3.77;;;14.10;84.20;;;;;;5087952;27;20218;-40
2022/04/26 09:56:40;;;;;;;3.90;3.47;;;14.00;82.90;;;;;;5096579;27;20200;-40
2022/04/26 09:59:07;;;;;;;3.43;3.13;;;14.00;82.70;;;;;;5102597;27;20204;-40
2022/04/26 10:01:39;;;;;;;3.50;3.30;;;14.00;81.20;;;;;;5103514;27;20215;-40
2022/04/26 10:04:09;;;;;;;3.83;3.53;;;14.10;79.90;;;;;;5086826;28;20331;-40
2022/04/26 10:06:37;;;;;;;3.47;3.17;;;14.00;79.30;;;;;;5079368;28;20312;-40
2022/04/26 10:09:06;;;;;;;3.30;3.00;;;13.90;79.20;;;;;;5093397;27;20212;-44
2022/04/26 10:11:34;;;;;;;5.00;3.40;;;14.00;79.00;;;;;;5082017;27;20966;-41
2022/04/26 10:14:02;;;;;;;3.57;3.23;;;14.10;78.50;;;;;;5099694;27;20498;-45
2022/04/26 10:16:29;;;;;;;3.60;3.30;;;14.30;77.90;;;;;;5090333;28;21379;-41
2022/04/26 10:19:03;;;;;;;4.93;3.00;;;14.50;78.10;;;;;;5094524;27;20194;-42
2022/04/26 10:21:46;;;;;;;3.70;3.40;;;14.60;79.70;;;;;;5089448;27;20255;-41
2022/04/26 10:24:21;;;;;;;6.57;3.70;;;14.60;98.20;;;;;;5090161;28;20692;-43
2022/04/26 10:26:50;;;;;;;3.00;2.80;;;14.40;74.80;;;;;;5085925;27;20207;-43
2022/04/26 10:29:22;;;;;;;7.07;3.50;;;14.50;75.50;;;;;;5086394;28;20190;-45
2022/04/26 10:31:58;;;;;;;3.63;3.20;;;14.50;73.90;;;;;;5100417;27;20193;-41
2022/04/26 10:34:28;;;;;;;5.47;3.97;;;14.30;74.60;;;;;;5083424;28;20213;-42
2022/04/26 10:36:59;;;;;;;4.30;3.53;;;14.30;74.30;;;;;;5082468;28;20206;-42
2022/04/26 10:39:37;;;;;;;3.70;3.40;;;14.20;73.90;;;;;;5080437;28;20208;-41
2022/04/26 10:42:25;;;;;;;3.80;3.50;;;14.20;72.70;;;;;;5092178;27;20216;-40
2022/04/26 10:44:57;;;;;;;5.10;3.87;;;14.30;73.30;;;;;;5100179;28;20193;-43
2022/04/26 10:47:29;;;;;;;4.23;3.83;;;14.50;73.20;;;;;;5086649;28;20205;-39
2022/04/26 10:50:00;;;;;;;3.90;3.50;;;14.50;73.70;;;;;;5093685;28;20215;-39
2022/04/26 10:52:41;;;;;;;4.17;3.20;;;14.80;72.80;;;;;;5102480;28;20262;-40
2022/04/26 10:55:16;;;;;;;3.77;3.20;;;14.80;72.50;;;;;;5087342;28;20688;-41
2022/04/26 10:57:51;;;;;;;4.13;3.80;;;14.90;71.80;;;;;;5092394;28;20196;-43
2022/04/26 11:00:26;;;;;;;4.33;3.90;;;15.00;72.50;;;;;;5094202;28;20204;-40
2022/04/26 11:02:59;;;;;;;3.80;3.50;;;15.10;72.30;;;;;;5103019;28;20226;-41
2022/04/26 11:05:27;;;;;;;4.07;3.37;;;15.30;71.30;;;;;;5092257;28;22866;-41
2022/04/26 11:07:55;;;;;;;5.37;3.63;;;15.40;70.60;;;;;;5088643;28;20209;-40
2022/04/26 11:10:23;;;;;;;5.07;3.90;;;15.30;69.40;;;;;;5086978;28;20654;-42
2022/04/26 11:12:51;;;;;;;4.60;3.60;;;15.30;69.80;;;;;;5084172;28;20214;-42
2022/04/26 11:15:20;;;;;;;5.77;3.87;;;15.30;69.30;;;;;;5091154;28;20206;-43
2022/04/26 11:17:49;;;;;;;3.90;3.50;;;15.10;68.60;;;;;;5089056;28;20576;-40
2022/04/26 11:20:17;;;;;;;3.47;3.00;;;15.20;71.10;;;;;;5076636;28;20225;-41
2022/04/26 11:22:48;;;;;;;3.97;3.57;;;15.40;70.20;;;;;;5094804;28;20300;-42
2022/04/26 11:28:17;;;;;;;4.10;3.80;;;15.60;69.30;;;;;;5032297;28;20195;-40
2022/04/26 11:30:46;;;;;;;4.30;3.50;;;15.70;67.30;;;;;;5044501;28;20213;-40
2022/04/26 11:33:15;;;;;;;6.23;3.47;;;15.60;67.40;;;;;;5068930;28;20891;-40
2022/04/26 11:35:43;;;;;;;3.97;3.57;;;15.60;67.70;;;;;;5105717;28;20236;-41
2022/04/26 11:38:10;;;;;;;4.50;4.10;;;15.50;67.30;;;;;;5087543;28;20241;-40
2022/04/26 11:40:40;;;;;;;3.70;3.40;;;15.40;66.70;;;;;;5083767;28;20198;-43
2022/04/26 11:43:10;;;;;;;4.27;3.60;;;15.30;66.40;;;;;;5084614;28;20226;-39
2022/04/26 11:45:39;;;;;;;4.20;3.87;;;15.10;66.60;;;;;;5086401;28;20280;-41
2022/04/26 11:48:10;;;;;;;4.57;3.63;;;15.00;67.70;;;;;;5097104;27;20311;-41
2022/04/26 11:50:37;;;;;;;4.20;3.80;;;15.00;67.90;;;;;;5101028;27;20669;-40
2022/04/26 11:53:06;;;;;;;3.50;3.20;;;15.00;68.00;;;;;;5097302;28;20248;-41
2022/04/26 11:55:34;;;;;;;5.77;3.67;;;15.10;69.20;;;;;;5103277;27;20707;-40
2022/04/26 11:58:13;;;;;;;3.63;3.33;;;15.20;70.40;;;;;;5096566;28;20258;-39
2022/04/26 12:00:59;;;;;;;4.40;3.43;;;15.20;69.40;;;;;;5098333;27;20216;-42
2022/04/26 12:03:29;;;;;;;5.03;3.67;;;15.30;67.20;;;;;;5111265;27;20224;-41
2022/04/26 12:05:58;;;;;;;4.43;4.07;;;15.30;66.90;;;;;;5097127;27;20185;-40
2022/04/26 12:08:26;;;;;;;7.27;3.90;;;15.40;66.00;;;;;;5095155;27;20232;-42
2022/04/26 12:10:53;;;;;;;6.23;4.77;;;15.30;65.80;;;;;;5100532;27;20193;-40
2022/04/26 12:13:32;;;;;;;4.77;3.67;;;15.20;65.50;;;;;;5082820;28;20214;-39
2022/04/26 12:16:17;;;;;;;5.07;3.70;;;15.20;65.50;;;;;;5090852;27;20221;-39
2022/04/26 12:18:54;;;;;;;5.63;3.97;;;15.20;65.90;;;;;;5105432;27;20280;-43
2022/04/26 12:21:23;;;;;;;4.80;3.50;;;15.20;66.60;;;;;;5109874;27;20882;-41
2022/04/26 12:24:10;;;;;;;4.00;3.70;;;15.20;65.60;;;;;;5095404;28;20228;-40
2022/04/26 12:26:37;;;;;;;5.00;3.57;;;15.10;64.20;;;;;;5101428;28;20201;-40
2022/04/26 12:29:12;;;;;;;4.20;3.80;;;15.00;65.60;;;;;;5095648;27;20657;-39
2022/04/26 12:31:44;;;;;;;5.00;3.87;;;15.10;66.00;;;;;;5082979;27;20216;-39
2022/04/26 12:34:16;;;;;;;7.07;3.70;;;15.10;65.70;;;;;;5109639;27;20201;-41
2022/04/26 12:36:51;;;;;;;3.80;3.50;;;15.20;66.20;;;;;;5085037;27;20927;-40
2022/04/26 12:39:18;;;;;;;4.60;3.80;;;15.30;65.60;;;;;;5098525;27;20208;-41
2022/04/26 12:41:48;;;;;;;5.13;3.60;;;15.30;66.20;;;;;;5090642;28;20896;-42
2022/04/26 12:44:15;;;;;;;4.27;3.80;;;15.60;64.90;;;;;;5090912;28;20564;-40
2022/04/26 12:50:27;;;;;;;4.70;3.80;;;15.90;65.00;;;;;;5090732;27;20222;-44
2022/04/26 12:52:42;;;;;;;5.87;3.70;;;16.20;61.90;;;;;;5089664;28;20216;-40
2022/04/26 12:55:09;;;;;;;4.03;3.63;;;16.00;62.30;;;;;;5090339;27;20230;-42
2022/04/26 12:57:47;;;;;;;4.67;3.50;;;16.00;62.20;;;;;;5095164;28;20202;-40
2022/04/26 13:00:15;;;;;;;5.27;4.33;;;16.00;60.50;;;;;;5087693;27;20249;-40
2022/04/26 13:02:43;;;;;;;3.60;3.30;;;16.00;60.90;;;;;;5088178;27;20399;-40
2022/04/26 13:05:10;;;;;;;5.70;3.60;;;16.00;60.00;;;;;;5086925;27;20205;-41
2022/04/26 13:07:37;;;;;;;5.67;3.50;;;16.10;60.00;;;;;;5088419;27;20835;-40
2022/04/26 13:10:04;;;;;;;3.50;3.00;;;16.30;59.90;;;;;;5100221;27;20201;-41
2022/04/26 13:12:31;;;;;;;3.23;3.03;;;16.50;60.30;;;;;;5087587;27;20302;-44
2022/04/26 13:14:59;;;;;;;3.03;2.73;;;16.70;58.60;;;;;;5090575;28;20197;-40
2022/04/26 13:17:26;;;;;;;3.83;2.97;;;16.80;58.00;;;;;;5083393;27;20288;-43
2022/04/26 13:19:54;;;;;;;3.20;3.00;;;17.00;57.50;;;;;;5111552;27;20189;-41
2022/04/26 13:22:22;;;;;;;3.30;3.10;;;17.30;56.30;;;;;;5088453;27;20396;-40
2022/04/26 13:24:50;;;;;;;3.60;3.13;;;17.20;55.10;;;;;;5097274;27;20272;-39
2022/04/26 13:27:18;;;;;;;4.10;3.70;;;16.90;56.10;;;;;;5093153;27;20202;-40
2022/04/26 13:29:45;;;;;;;6.40;3.60;;;16.70;55.80;;;;;;5100699;27;20185;-42
2022/04/26 13:32:12;;;;;;;3.33;3.03;;;16.50;56.60;;;;;;5087855;27;20217;-43
2022/04/26 13:34:38;;;;;;;3.10;2.70;;;16.50;57.50;;;;;;5081795;27;20964;-39
2022/04/26 13:37:07;;;;;;;3.87;3.47;;;16.90;56.30;;;;;;5095390;27;20205;-41
2022/04/26 13:39:35;;;;;;;3.40;3.10;;;17.50;56.40;;;;;;5088146;27;20258;-40
2022/04/26 13:42:02;;;;;;;3.33;3.13;;;18.30;55.00;;;;;;5091675;27;20304;-39
2022/04/26 13:44:29;;;;;;;3.77;3.47;;;19.00;53.50;;;;;;5090876;27;20197;-39
2022/04/26 13:46:57;;;;;;;3.63;3.33;;;19.20;52.60;;;;;;5094134;28;20197;-39
2022/04/26 13:49:24;;;;;;;4.80;3.60;;;19.00;51.50;;;;;;5076691;27;20287;-40
2022/04/26 13:51:51;;;;;;;3.70;3.40;;;19.00;52.00;;;;;;5102229;27;20247;-39
2022/04/26 13:54:19;;;;;;;6.27;4.03;;;18.70;52.00;;;;;;5080864;27;20201;-39
2022/04/26 13:56:49;;;;;;;4.87;4.00;;;18.30;51.90;;;;;;5088607;27;20608;-40
2022/04/26 13:59:16;;;;;;;4.40;4.00;;;17.70;52.80;;;;;;5084010;28;20240;-39
2022/04/26 14:01:43;;;;;;;4.97;3.73;;;17.90;54.00;;;;;;5091483;28;20244;-41
2022/04/26 14:04:09;;;;;;;4.90;4.50;;;18.50;53.10;;;;;;5087768;27;20206;-40
2022/04/26 14:06:36;;;;;;;4.40;4.00;;;18.70;52.10;;;;;;5086965;27;20289;-41
2022/04/26 14:09:03;;;;;;;3.87;3.53;;;18.90;52.40;;;;;;5099470;27;20192;-40
2022/04/26 14:11:31;;;;;;;5.23;4.13;;;19.40;53.70;;;;;;5092947;27;20304;-40
2022/04/26 14:22:12;;;;;;;4.53;3.77;;;19.50;50.30;;;;;;5105166;27;20212;-40
2022/04/26 14:24:39;;;;;;;5.03;4.13;;;19.50;50.60;;;;;;5085656;28;20247;-41
2022/04/26 14:27:07;;;;;;;5.53;3.90;;;19.80;49.40;;;;;;5088199;27;20673;-40
2022/04/26 14:29:34;;;;;;;3.67;3.17;;;20.00;48.90;;;;;;5091504;27;20198;-41
2022/04/26 14:32:02;;;;;;;4.43;3.53;;;19.70;49.40;;;;;;5108163;27;20875;-40
2022/04/26 14:34:29;;;;;;;4.43;4.03;;;19.20;50.30;;;;;;5082366;27;20205;-43
2022/04/26 14:36:58;;;;;;;5.70;3.93;;;18.70;50.90;;;;;;5108009;27;20358;-42
2022/04/26 14:39:25;;;;;;;4.40;3.97;;;18.10;50.80;;;;;;5088549;27;20208;-40
2022/04/26 14:41:53;;;;;;;3.90;3.60;;;18.40;51.50;;;;;;5096205;28;20698;-40
2022/04/26 14:44:21;;;;;;;4.07;3.77;;;18.80;50.80;;;;;;5082699;27;20209;-40
2022/04/26 14:46:48;;;;;;;4.23;3.73;;;19.00;50.70;;;;;;5090344;28;20197;-40
2022/04/26 14:49:15;;;;;;;4.63;3.77;;;18.60;51.50;;;;;;5096256;28;20189;-40
2022/04/26 14:51:41;;;;;;;5.13;3.90;;;18.90;51.20;;;;;;5092928;28;20699;-40
2022/04/26 14:54:08;;;;;;;7.20;3.50;;;18.90;50.60;;;;;;5101718;28;20207;-41
2022/04/26 14:56:35;;;;;;;5.73;3.33;;;19.00;50.70;;;;;;5087647;28;20977;-41
2022/04/26 14:59:03;;;;;;;4.37;3.97;;;18.70;50.80;;;;;;5092243;28;20196;-40
2022/04/26 15:01:31;;;;;;;4.07;3.67;;;18.50;51.70;;;;;;5089641;28;20193;-41
2022/04/26 15:03:57;;;;;;;4.07;3.63;;;18.20;51.30;;;;;;5103755;28;20233;-41
2022/04/26 15:06:24;;;;;;;3.97;3.67;;;17.70;51.70;;;;;;5081724;28;20209;-40
2022/04/26 15:11:36;;;;;;;4.63;3.63;;;17.10;52.60;;;;;;5085561;28;20346;-39
2022/04/26 15:16:56;;;;;;;4.23;3.83;;;17.40;52.80;;;;;;5018408;28;20225;-40
2022/04/26 15:19:24;;;;;;;4.90;3.60;;;17.00;53.20;;;;;;5091152;28;20189;-42
2022/04/26 15:21:50;;;;;;;4.10;3.70;;;16.70;53.70;;;;;;5083173;28;20245;-40
2022/04/26 15:24:18;;;;;;;4.00;3.43;;;16.50;54.20;;;;;;5113958;27;20624;-39
2022/04/26 15:26:45;;;;;;;6.47;3.60;;;16.40;54.60;;;;;;5091771;27;20198;-39
2022/04/26 15:29:11;;;;;;;4.47;3.60;;;16.30;54.50;;;;;;5083956;27;20202;-40
2022/04/26 15:31:38;;;;;;;3.83;3.47;;;16.20;54.70;;;;;;5096848;27;20190;-40
2022/04/26 15:34:07;;;;;;;4.10;3.80;;;16.20;54.80;;;;;;5100634;27;20209;-40
2022/04/26 15:36:34;;;;;;;3.97;3.53;;;16.40;54.90;;;;;;5092205;27;20224;-39
2022/04/26 15:39:02;;;;;;;3.77;3.47;;;16.30;54.60;;;;;;5098205;27;20205;-39
2022/04/26 15:41:32;;;;;;;4.03;3.73;;;16.80;54.20;;;;;;5099888;27;20221;-41
2022/04/26 15:44:00;;;;;;;4.53;4.13;;;17.30;53.60;;;;;;5112289;27;20217;-40
2022/04/26 15:46:26;;;;;;;5.10;3.70;;;17.40;52.60;;;;;;5089952;27;20213;-39
2022/04/26 15:48:53;;;;;;;4.13;3.47;;;17.40;52.40;;;;;;5091193;28;20205;-40
2022/04/26 15:51:23;;;;;;;4.13;3.17;;;17.10;52.60;;;;;;5100047;27;20190;-42
2022/04/26 15:53:50;;;;;;;4.27;3.73;;;16.80;53.10;;;;;;5083981;27;20211;-41
2022/04/26 15:56:17;;;;;;;4.10;3.70;;;17.30;52.60;;;;;;5096135;27;20305;-41
2022/04/26 15:58:44;;;;;;;3.90;3.60;;;17.90;51.70;;;;;;5089054;27;20212;-43
2022/04/26 16:01:12;;;;;;;5.03;3.50;;;17.60;51.50;;;;;;5101171;27;20223;-40
2022/04/26 16:03:41;;;;;;;3.10;2.90;;;17.60;51.60;;;;;;5099804;27;20302;-42
2022/04/26 16:06:07;;;;;;;3.90;3.50;;;18.10;51.40;;;;;;5092468;28;20205;-40
2022/04/26 16:08:35;;;;;;;3.77;3.47;;;18.20;50.80;;;;;;5079371;27;20205;-40
2022/04/26 16:22:03;;;;;;;4.70;4.30;;;17.00;53.70;;;;;;5093902;27;20217;-39
2022/04/26 16:24:36;;;;;;;4.20;3.67;;;16.70;54.80;;;;;;5095129;27;20598;-41
2022/04/26 16:27:03;;;;;;;5.73;4.40;;;16.50;55.60;;;;;;5100946;27;20237;-40
2022/04/26 16:29:30;;;;;;;4.53;4.13;;;16.30;56.10;;;;;;5091021;27;20682;-40
2022/04/26 16:31:57;;;;;;;4.37;3.60;;;16.10;56.80;;;;;;5089389;27;20236;-41
2022/04/26 16:34:25;;;;;;;5.47;3.83;;;16.00;57.40;;;;;;5082700;27;20194;-40
2022/04/26 16:36:52;;;;;;;4.50;4.10;;;15.90;57.90;;;;;;5105706;27;20205;-41
2022/04/26 16:39:19;;;;;;;5.33;3.83;;;15.80;57.90;;;;;;5089972;27;20315;-43
2022/04/26 16:41:48;;;;;;;4.57;4.17;;;15.70;58.60;;;;;;5106135;27;20185;-44
2022/04/26 16:44:15;;;;;;;4.90;3.77;;;15.60;59.40;;;;;;5093356;28;20206;-41
2022/04/26 16:46:42;;;;;;;4.17;3.77;;;15.50;60.30;;;;;;5083332;27;20322;-39
2022/04/26 16:49:10;;;;;;;4.40;4.00;;;15.50;61.30;;;;;;5098351;28;20579;-40
2022/04/26 16:51:37;;;;;;;4.70;4.03;;;15.40;61.70;;;;;;5092706;28;20191;-40
2022/04/26 16:54:04;;;;;;;5.40;4.37;;;15.30;62.40;;;;;;5095177;27;20591;-41
2022/04/26 16:56:32;;;;;;;4.67;3.83;;;15.20;63.00;;;;;;5090231;27;20205;-41
2022/04/26 16:59:01;;;;;;;4.03;3.73;;;15.10;63.60;;;;;;5100165;27;20197;-41
2022/04/26 17:01:27;;;;;;;3.97;3.60;;;15.10;64.00;;;;;;5083219;27;20201;-41
2022/04/26 17:03:54;;;;;;;3.70;3.40;;;15.00;63.80;;;;;;5104035;27;20248;-40
2022/04/26 17:06:22;;;;;;;5.50;3.97;;;15.00;63.90;;;;;;5106648;27;20197;-40
2022/04/26 17:08:50;;;;;;;4.17;3.43;;;15.00;64.20;;;;;;5098447;27;20481;-40
2022/04/26 17:14:02;;;;;;;3.47;3.17;;;14.90;64.40;;;;;;5117283;27;20211;-40
2022/04/26 17:16:29;;;;;;;3.60;3.30;;;14.80;64.60;;;;;;5086611;27;20390;-40
2022/04/26 17:18:55;;;;;;;5.60;3.20;;;14.70;65.10;;;;;;5097486;27;20202;-43